createdAt,value
2019-04-25T00:02:29.317Z,13.30
2019-04-25T00:04:59.196Z,13.30
2019-04-25T00:07:29.199Z,13.30
2019-04-25T00:09:59.647Z,13.30
2019-04-25T00:12:29.743Z,13.20
2019-04-25T00:15:01.265Z,13.20
2019-04-25T00:17:31.793Z,13.20
2019-04-25T00:20:01.767Z,13.10
2019-04-25T00:22:51.512Z,13.20
2019-04-25T00:25:45.901Z,13.10
2019-04-25T00:28:15.184Z,13.00
2019-04-25T00:30:46.046Z,13.20
2019-04-25T00:33:16.561Z,13.30
2019-04-25T00:35:46.451Z,13.40
2019-04-25T00:38:16.459Z,13.30
2019-04-25T00:40:46.467Z,13.60
2019-04-25T00:43:16.424Z,13.50
2019-04-25T00:45:47.577Z,13.40
2019-04-25T00:48:17.600Z,13.30
2019-04-25T00:50:47.988Z,13.50
2019-04-25T00:53:17.960Z,13.60
2019-04-25T00:55:48.630Z,13.50
2019-04-25T00:58:26.032Z,13.30
2019-04-25T01:01:13.227Z,13.30
2019-04-25T01:03:44.148Z,13.20
2019-04-25T01:06:14.617Z,13.30
2019-04-25T01:08:45.620Z,13.30
2019-04-25T01:11:34.960Z,13.20
2019-04-25T01:14:04.964Z,13.10
2019-04-25T01:16:35.083Z,13.00
2019-04-25T01:19:05.063Z,13.10
2019-04-25T01:21:34.948Z,13.20
2019-04-25T01:24:05.215Z,13.30
2019-04-25T01:26:35.198Z,13.20
2019-04-25T01:29:05.868Z,13.10
2019-04-25T01:31:36.213Z,13.20
2019-04-25T01:34:08.257Z,13.10
2019-04-25T01:36:48.666Z,13.10
2019-04-25T01:39:36.244Z,12.90
2019-04-25T01:42:23.606Z,12.90
2019-04-25T01:44:56.542Z,12.90
2019-04-25T01:47:26.129Z,12.90
2019-04-25T01:49:56.714Z,13.00
2019-04-25T01:52:26.868Z,13.00
2019-04-25T01:54:57.145Z,13.00
2019-04-25T01:57:27.112Z,13.00
2019-04-25T01:59:57.523Z,13.00
2019-04-25T02:02:29.159Z,12.80
2019-04-25T02:04:59.422Z,12.90
2019-04-25T02:07:30.498Z,12.90
2019-04-25T02:10:03.665Z,13.00
2019-04-25T02:12:39.610Z,12.90
2019-04-25T02:15:10.309Z,13.10
2019-04-25T02:17:40.601Z,13.30
2019-04-25T02:20:10.889Z,13.30
2019-04-25T02:22:41.169Z,13.20
2019-04-25T02:25:11.268Z,13.20
2019-04-25T02:27:41.184Z,13.30
2019-04-25T02:30:12.264Z,13.90
2019-04-25T02:32:44.210Z,14.00
2019-04-25T02:35:14.726Z,13.90
2019-04-25T02:37:45.235Z,14.40
2019-04-25T02:40:16.553Z,14.60
2019-04-25T02:42:46.531Z,14.80
2019-04-25T02:45:36.293Z,14.70
2019-04-25T02:48:27.967Z,14.40
2019-04-25T02:51:19.150Z,14.20
2019-04-25T02:53:50.661Z,13.90
2019-04-25T02:56:31.335Z,13.70
2019-04-25T02:58:54.209Z,13.40
2019-04-25T03:01:26.194Z,13.30
2019-04-25T03:03:57.583Z,13.40
2019-04-25T03:06:31.131Z,13.30
2019-04-25T03:09:02.034Z,13.50
2019-04-25T03:11:34.564Z,13.60
2019-04-25T03:14:07.006Z,13.70
2019-04-25T03:16:36.730Z,13.70
2019-04-25T03:19:28.736Z,13.50
2019-04-25T03:22:01.491Z,13.70
2019-04-25T03:24:31.971Z,14.10
2019-04-25T03:27:03.430Z,14.00
2019-04-25T03:29:34.303Z,14.30
2019-04-25T03:32:09.278Z,14.90
2019-04-25T03:34:36.757Z,15.30
2019-04-25T03:37:07.661Z,15.30
2019-04-25T03:39:37.952Z,15.90
2019-04-25T03:42:08.234Z,15.80
2019-04-25T03:44:38.412Z,15.70
2019-04-25T03:47:08.929Z,15.80
2019-04-25T03:49:40.172Z,15.50
2019-04-25T03:52:10.452Z,15.60
2019-04-25T03:54:40.678Z,16.00
2019-04-25T03:57:10.999Z,15.70
2019-04-25T03:59:40.927Z,16.00
2019-04-25T04:02:11.005Z,16.00
2019-04-25T04:04:40.984Z,15.90
2019-04-25T04:07:11.416Z,15.90
2019-04-25T04:09:43.528Z,16.00
2019-04-25T04:12:14.769Z,16.20
2019-04-25T04:14:45.257Z,16.10
2019-04-25T04:17:40.268Z,15.80
2019-04-25T04:20:29.312Z,16.00
2019-04-25T04:23:09.657Z,16.10
2019-04-25T04:25:39.819Z,16.10
2019-04-25T04:28:09.912Z,15.80
2019-04-25T04:30:40.008Z,16.00
2019-04-25T04:33:22.185Z,15.90
2019-04-25T04:35:41.936Z,15.50
2019-04-25T04:38:11.895Z,15.20
2019-04-25T04:40:41.860Z,14.90
2019-04-25T04:43:12.200Z,14.90
2019-04-25T04:45:45.021Z,14.70
2019-04-25T04:48:14.650Z,14.60
2019-04-25T04:50:45.751Z,14.50
2019-04-25T04:53:16.042Z,14.40
2019-04-25T04:55:46.500Z,14.30
2019-04-25T04:58:17.625Z,14.30
2019-04-25T05:00:47.892Z,14.20
2019-04-25T05:03:44.107Z,14.00
2019-04-25T05:06:21.764Z,13.80
2019-04-25T05:08:55.772Z,13.80
2019-04-25T05:11:25.843Z,14.00
2019-04-25T05:13:55.879Z,14.10
2019-04-25T05:16:25.987Z,14.00
2019-04-25T05:18:56.424Z,13.80
2019-04-25T05:21:26.457Z,13.90
2019-04-25T05:23:56.442Z,13.90
2019-04-25T05:26:26.504Z,13.80
2019-04-25T05:28:57.032Z,13.70
2019-04-25T05:31:48.947Z,13.70
2019-04-25T05:34:19.576Z,13.60
2019-04-25T05:36:49.910Z,13.70
2019-04-25T05:39:20.426Z,13.90
2019-04-25T05:42:08.137Z,14.00
2019-04-25T05:44:38.233Z,14.10
2019-04-25T05:47:09.032Z,14.30
2019-04-25T05:49:39.281Z,14.30
2019-04-25T05:52:09.954Z,14.40
2019-04-25T05:54:40.460Z,14.50
2019-04-25T05:57:13.610Z,14.80
2019-04-25T05:59:44.874Z,15.00
2019-04-25T06:02:15.676Z,14.90
2019-04-25T06:04:46.426Z,14.90
2019-04-25T06:07:18.000Z,14.90
2019-04-25T06:09:56.136Z,15.00
2019-04-25T06:12:59.040Z,15.10
2019-04-25T06:15:30.923Z,15.20
2019-04-25T06:18:35.946Z,15.30
2019-04-25T06:21:07.391Z,15.50
2019-04-25T06:24:04.325Z,15.90
2019-04-25T06:26:43.331Z,16.00
2019-04-25T06:29:14.059Z,15.90
2019-04-25T06:31:45.793Z,16.20
2019-04-25T06:34:16.286Z,16.40
2019-04-25T06:36:46.660Z,16.40
2019-04-25T06:39:17.187Z,16.40
2019-04-25T06:41:47.746Z,16.60
2019-04-25T06:44:35.602Z,16.80
2019-04-25T06:47:15.105Z,17.00
2019-04-25T06:49:45.461Z,17.30
2019-04-25T06:52:16.148Z,17.50
2019-04-25T06:54:46.713Z,17.90
2019-04-25T06:57:17.090Z,18.10
2019-04-25T06:59:47.528Z,18.40
2019-04-25T07:02:17.832Z,18.50
2019-04-25T07:04:48.305Z,18.80
2019-04-25T07:07:18.704Z,18.90
2019-04-25T07:09:49.025Z,18.90
2019-04-25T07:12:19.411Z,18.90
2019-04-25T07:14:49.921Z,19.00
2019-04-25T07:17:20.360Z,19.20
2019-04-25T07:19:50.948Z,19.30
2019-04-25T07:22:21.393Z,19.50
2019-04-25T07:24:51.646Z,19.60
2019-04-25T07:27:44.771Z,19.70
2019-04-25T07:30:48.431Z,19.70
2019-04-25T07:33:16.069Z,19.70
2019-04-25T07:35:46.360Z,19.70
2019-04-25T07:38:16.780Z,19.80
2019-04-25T07:40:47.349Z,19.90
2019-04-25T07:43:17.760Z,19.90
2019-04-25T07:45:48.241Z,20.00
2019-04-25T07:48:18.871Z,20.00
2019-04-25T07:50:50.673Z,20.10
2019-04-25T07:53:21.000Z,20.10
2019-04-25T07:55:51.461Z,20.20
2019-04-25T07:58:21.705Z,20.20
2019-04-25T08:00:53.948Z,20.10
2019-04-25T08:03:24.476Z,20.20
2019-04-25T08:05:55.024Z,20.10
2019-04-25T08:08:25.319Z,20.00
2019-04-25T08:11:04.049Z,20.20
2019-04-25T08:13:49.605Z,20.20
2019-04-25T08:16:23.239Z,20.30
2019-04-25T08:18:54.281Z,20.50
2019-04-25T08:21:24.976Z,20.60
2019-04-25T08:23:57.279Z,20.70
2019-04-25T08:26:27.712Z,20.90
2019-04-25T08:28:58.634Z,21.10
2019-04-25T08:31:31.077Z,21.20
2019-04-25T08:34:03.448Z,21.30
2019-04-25T08:36:38.173Z,21.40
2019-04-25T08:39:09.447Z,21.50
2019-04-25T08:41:40.064Z,21.70
2019-04-25T08:44:21.139Z,21.90
2019-04-25T08:46:53.399Z,21.80
2019-04-25T08:49:34.496Z,22.00
2019-04-25T08:52:05.368Z,22.00
2019-04-25T08:54:54.614Z,22.20
2019-04-25T08:57:44.173Z,22.30
2019-04-25T09:00:26.164Z,22.40
2019-04-25T09:03:00.579Z,22.30
2019-04-25T09:05:40.392Z,22.40
2019-04-25T09:08:12.167Z,22.60
2019-04-25T09:10:43.668Z,22.90
2019-04-25T09:13:15.176Z,23.00
2019-04-25T09:15:47.799Z,23.00
2019-04-25T09:18:18.225Z,22.90
2019-04-25T09:20:48.616Z,22.60
2019-04-25T09:23:18.980Z,22.70
2019-04-25T09:25:49.632Z,23.00
2019-04-25T09:28:20.027Z,23.20
2019-04-25T09:30:50.818Z,23.20
2019-04-25T09:33:21.181Z,23.10
2019-04-25T09:35:51.641Z,23.30
2019-04-25T09:38:21.850Z,23.30
2019-04-25T09:40:52.100Z,23.30
2019-04-25T09:43:23.511Z,23.20
2019-04-25T09:46:00.269Z,23.40
2019-04-25T09:48:37.455Z,23.40
2019-04-25T09:51:15.279Z,23.40
2019-04-25T09:54:42.383Z,23.60
2019-04-25T09:57:33.449Z,23.40
2019-04-25T10:00:04.740Z,23.60
2019-04-25T10:02:35.887Z,23.90
2019-04-25T10:05:07.652Z,23.70
2019-04-25T10:07:38.515Z,23.80
2019-04-25T10:10:09.506Z,23.80
2019-04-25T10:12:41.121Z,24.30
2019-04-25T10:15:52.908Z,24.10
2019-04-25T10:18:24.180Z,23.70
2019-04-25T10:20:54.660Z,23.40
2019-04-25T10:23:24.929Z,23.60
2019-04-25T10:25:55.196Z,23.50
2019-04-25T10:28:27.463Z,24.20
2019-04-25T10:30:58.056Z,24.50
2019-04-25T10:33:29.768Z,24.90
2019-04-25T10:36:01.178Z,24.20
2019-04-25T10:38:33.630Z,24.00
2019-04-25T10:41:05.115Z,23.50
2019-04-25T10:43:36.061Z,23.10
2019-04-25T10:46:08.156Z,23.20
2019-04-25T10:48:40.144Z,23.70
2019-04-25T10:51:13.900Z,23.60
2019-04-25T10:53:45.982Z,24.20
2019-04-25T10:56:17.756Z,24.70
2019-04-25T10:58:48.477Z,25.30
2019-04-25T11:01:19.171Z,25.50
2019-04-25T11:04:08.682Z,25.70
2019-04-25T11:06:40.850Z,26.10
2019-04-25T11:09:19.435Z,26.60
2019-04-25T11:11:50.887Z,26.30
2019-04-25T11:14:23.787Z,26.30
2019-04-25T11:16:55.246Z,26.00
2019-04-25T11:19:25.617Z,26.00
2019-04-25T11:21:56.477Z,26.40
2019-04-25T11:24:26.558Z,26.60
2019-04-25T11:26:57.564Z,26.90
2019-04-25T11:29:27.730Z,26.50
2019-04-25T11:31:57.953Z,26.80
2019-04-25T11:34:28.052Z,26.70
2019-04-25T11:36:58.299Z,26.40
2019-04-25T11:39:38.138Z,26.30
2019-04-25T11:42:14.964Z,25.80
2019-04-25T11:44:46.668Z,24.90
2019-04-25T11:47:17.455Z,25.00
2019-04-25T11:49:47.841Z,24.90
2019-04-25T11:52:27.348Z,24.30
2019-04-25T11:54:50.696Z,23.60
2019-04-25T11:57:21.180Z,23.30
2019-04-25T11:59:52.388Z,23.10
2019-04-25T12:02:24.608Z,22.90
2019-04-25T12:04:55.241Z,22.80
2019-04-25T12:07:25.812Z,22.50
2019-04-25T12:09:55.804Z,22.60
2019-04-25T12:12:25.821Z,22.50
2019-04-25T12:14:56.300Z,22.50
2019-04-25T12:17:26.296Z,22.70
2019-04-25T12:19:56.347Z,22.80
2019-04-25T12:22:26.596Z,22.50
2019-04-25T12:24:56.601Z,22.20
2019-04-25T12:27:27.640Z,22.40
2019-04-25T12:29:57.803Z,22.50
2019-04-25T12:32:27.771Z,22.50
2019-04-25T12:34:57.924Z,22.20
2019-04-25T12:37:28.057Z,22.10
2019-04-25T12:39:58.249Z,22.10
2019-04-25T12:42:28.464Z,22.30
2019-04-25T12:45:24.154Z,22.20
2019-04-25T12:47:58.002Z,22.20
2019-04-25T12:50:27.293Z,22.10
2019-04-25T12:52:58.101Z,21.90
2019-04-25T12:55:28.668Z,21.90
2019-04-25T12:57:59.099Z,21.90
2019-04-25T13:00:30.023Z,21.90
2019-04-25T13:03:00.252Z,21.90
2019-04-25T13:05:30.485Z,22.00
2019-04-25T13:08:01.160Z,22.00
2019-04-25T13:10:33.193Z,22.00
2019-04-25T13:13:04.053Z,22.00
2019-04-25T13:15:35.013Z,21.90
2019-04-25T13:18:05.473Z,21.80
2019-04-25T13:20:35.775Z,21.80
2019-04-25T13:23:07.567Z,21.90
2019-04-25T13:25:38.145Z,22.20
2019-04-25T13:28:28.446Z,22.40
2019-04-25T13:31:21.322Z,22.50
2019-04-25T13:34:05.810Z,23.30
2019-04-25T13:36:36.481Z,23.00
2019-04-25T13:39:15.080Z,23.30
2019-04-25T13:41:46.996Z,23.10
2019-04-25T13:44:17.305Z,22.90
2019-04-25T13:46:48.180Z,23.00
2019-04-25T13:49:19.468Z,23.00
2019-04-25T13:51:50.510Z,23.30
2019-04-25T13:54:21.824Z,23.70
2019-04-25T13:56:53.421Z,23.80
2019-04-25T13:59:23.876Z,23.30
2019-04-25T14:01:57.622Z,23.40
2019-04-25T14:04:28.096Z,22.90
2019-04-25T14:06:58.649Z,22.40
2019-04-25T14:09:29.189Z,22.20
2019-04-25T14:12:00.213Z,22.00
2019-04-25T14:14:30.952Z,22.20
2019-04-25T14:17:18.717Z,22.30
2019-04-25T14:20:20.850Z,22.60
2019-04-25T14:22:53.663Z,23.30
2019-04-25T14:25:26.976Z,23.20
2019-04-25T14:27:57.841Z,22.90
2019-04-25T14:30:30.628Z,23.00
2019-04-25T14:33:01.008Z,23.10
2019-04-25T14:35:31.418Z,23.10
2019-04-25T14:38:01.933Z,23.40
2019-04-25T14:40:33.236Z,23.70
2019-04-25T14:43:04.921Z,23.50
2019-04-25T14:45:44.278Z,23.30
2019-04-25T14:48:07.669Z,23.80
2019-04-25T14:50:38.142Z,23.70
2019-04-25T14:53:08.704Z,24.00
2019-04-25T14:55:50.539Z,24.10
2019-04-25T14:58:22.842Z,24.30
2019-04-25T15:01:05.684Z,24.80
2019-04-25T15:03:36.084Z,25.30
2019-04-25T15:06:06.330Z,24.80
2019-04-25T15:08:36.897Z,24.90
2019-04-25T15:11:07.130Z,25.30
2019-04-25T15:13:37.719Z,24.90
2019-04-25T15:16:08.961Z,24.40
2019-04-25T15:18:46.611Z,24.00
2019-04-25T15:21:11.612Z,23.30
2019-04-25T15:23:42.586Z,23.10
2019-04-25T15:26:13.085Z,23.50
2019-04-25T15:28:43.647Z,23.60
2019-04-25T15:31:14.621Z,23.50
2019-04-25T15:33:45.330Z,23.40
2019-04-25T15:36:20.963Z,23.20
2019-04-25T15:39:13.261Z,23.60
2019-04-25T15:41:49.425Z,23.80
2019-04-25T15:44:39.410Z,25.80
2019-04-25T15:47:12.812Z,26.10
2019-04-25T15:49:43.304Z,25.40
2019-04-25T15:52:14.476Z,24.60
2019-04-25T15:54:44.728Z,24.20
2019-04-25T15:57:15.140Z,23.50
2019-04-25T15:59:45.693Z,23.10
2019-04-25T16:02:16.963Z,22.90
2019-04-25T16:04:47.060Z,23.10
2019-04-25T16:07:18.330Z,22.60
2019-04-25T16:09:50.208Z,22.30
2019-04-25T16:12:20.554Z,22.10
2019-04-25T16:14:51.378Z,22.00
2019-04-25T16:17:21.560Z,21.80
2019-04-25T16:19:52.065Z,21.90
2019-04-25T16:22:23.012Z,21.90
2019-04-25T16:24:53.057Z,21.80
2019-04-25T16:27:23.375Z,21.80
2019-04-25T16:29:53.850Z,21.50
2019-04-25T16:32:25.336Z,21.50
2019-04-25T16:34:56.089Z,21.60
2019-04-25T16:37:26.828Z,21.40
2019-04-25T16:39:59.724Z,21.30
2019-04-25T16:42:30.369Z,21.20
2019-04-25T16:45:00.402Z,20.90
2019-04-25T16:47:31.878Z,20.80
2019-04-25T16:50:01.933Z,20.60
2019-04-25T16:52:31.993Z,20.40
2019-04-25T16:55:02.247Z,20.40
2019-04-25T16:57:33.188Z,20.30
2019-04-25T17:00:04.193Z,20.40
2019-04-25T17:02:37.517Z,20.40
2019-04-25T17:05:09.979Z,20.40
2019-04-25T17:07:40.987Z,20.40
2019-04-25T17:10:12.512Z,20.20
2019-04-25T17:12:42.611Z,20.20
2019-04-25T17:15:30.664Z,20.10
2019-04-25T17:18:06.596Z,20.00
2019-04-25T17:20:41.802Z,20.00
2019-04-25T17:23:12.204Z,19.90
2019-04-25T17:25:43.816Z,19.80
2019-04-25T17:28:14.731Z,19.80
2019-04-25T17:30:47.916Z,19.80
2019-04-25T17:33:43.126Z,19.90
2019-04-25T17:36:20.413Z,19.80
2019-04-25T17:39:07.838Z,19.60
2019-04-25T17:41:40.484Z,19.50
2019-04-25T17:44:10.918Z,19.40
2019-04-25T17:46:41.904Z,19.40
2019-04-25T17:49:12.971Z,19.40
2019-04-25T17:51:44.027Z,19.50
2019-04-25T17:54:14.644Z,19.30
2019-04-25T17:56:45.272Z,19.20
2019-04-25T17:59:15.408Z,19.00
2019-04-25T18:01:45.556Z,18.70
2019-04-25T18:04:16.406Z,18.50
2019-04-25T18:06:46.445Z,18.50
2019-04-25T18:09:16.961Z,18.40
2019-04-25T18:11:47.296Z,18.30
2019-04-25T18:14:17.397Z,18.30
2019-04-25T18:16:48.541Z,18.30
2019-04-25T18:19:25.143Z,18.30
2019-04-25T18:21:59.287Z,18.30
2019-04-25T18:24:46.992Z,18.10
2019-04-25T18:27:37.564Z,18.10
2019-04-25T18:30:08.276Z,18.10
2019-04-25T18:32:39.969Z,18.00
2019-04-25T18:35:24.887Z,18.10
2019-04-25T18:38:20.327Z,18.10
2019-04-25T18:41:03.980Z,18.10
2019-04-25T18:43:40.838Z,18.00
2019-04-25T18:46:17.699Z,18.00
2019-04-25T18:48:47.789Z,17.90
2019-04-25T18:51:18.312Z,17.60
2019-04-25T18:54:06.105Z,17.30
2019-04-25T18:56:57.411Z,17.20
2019-04-25T18:59:46.010Z,16.90
2019-04-25T19:02:46.398Z,16.80
2019-04-25T19:05:35.721Z,16.70
2019-04-25T19:08:07.608Z,16.80
2019-04-25T19:10:39.436Z,16.80
2019-04-25T19:13:12.997Z,16.80
2019-04-25T19:15:41.717Z,16.80
2019-04-25T19:18:11.997Z,16.70
2019-04-25T19:20:42.426Z,16.70
2019-04-25T19:23:12.400Z,16.60
2019-04-25T19:25:43.640Z,16.70
2019-04-25T19:28:13.758Z,16.70
2019-04-25T19:30:45.072Z,16.60
2019-04-25T19:33:15.340Z,16.10
2019-04-25T19:35:46.132Z,15.20
2019-04-25T19:38:16.761Z,14.40
2019-04-25T19:41:05.312Z,14.30
2019-04-25T19:44:00.613Z,14.00
2019-04-25T19:46:42.825Z,13.80
2019-04-25T19:49:13.470Z,13.30
2019-04-25T19:51:43.708Z,13.00
2019-04-25T19:54:14.949Z,12.30
2019-04-25T19:56:45.377Z,11.90
2019-04-25T19:59:15.559Z,11.40
2019-04-25T20:01:46.336Z,10.60
2019-04-25T20:04:35.476Z,10.10
2019-04-25T20:07:28.055Z,9.90
2019-04-25T20:10:29.094Z,9.40
2019-04-25T20:13:00.543Z,9.20
2019-04-25T20:15:30.945Z,9.10
2019-04-25T20:18:01.697Z,9.00
2019-04-25T20:20:31.965Z,9.00
2019-04-25T20:23:02.370Z,9.00
2019-04-25T20:25:32.541Z,8.70
2019-04-25T20:28:02.937Z,8.80
2019-04-25T20:30:33.777Z,8.70
2019-04-25T20:33:05.502Z,8.60
2019-04-25T20:35:36.450Z,8.60
2019-04-25T20:38:07.111Z,8.50
2019-04-25T20:40:37.526Z,8.60
2019-04-25T20:43:08.377Z,8.60
2019-04-25T20:45:39.863Z,8.70
2019-04-25T20:48:10.303Z,8.60
2019-04-25T20:50:40.533Z,8.70
2019-04-25T20:53:10.704Z,8.80
2019-04-25T20:55:41.128Z,8.80
2019-04-25T20:58:11.376Z,8.60
2019-04-25T21:00:44.901Z,8.60
2019-04-25T21:03:17.179Z,8.60
2019-04-25T21:05:48.561Z,8.70
2019-04-25T21:08:19.408Z,8.70
2019-04-25T21:10:50.680Z,8.80
2019-04-25T21:13:30.093Z,8.70
2019-04-25T21:16:18.928Z,8.80
2019-04-25T21:19:07.994Z,8.70
2019-04-25T21:21:38.224Z,8.40
2019-04-25T21:24:08.674Z,8.40
2019-04-25T21:26:39.239Z,8.50
2019-04-25T21:29:09.369Z,8.60
2019-04-25T21:32:01.515Z,8.60
2019-04-25T21:34:32.366Z,8.60
2019-04-25T21:37:02.924Z,8.80
2019-04-25T21:40:02.755Z,8.90
2019-04-25T21:42:56.215Z,8.60
2019-04-25T21:45:26.832Z,8.50
2019-04-25T21:47:57.392Z,8.50
2019-04-25T21:50:28.048Z,8.40
2019-04-25T21:52:59.140Z,8.30
2019-04-25T21:55:30.073Z,8.30
2019-04-25T21:58:00.860Z,8.20
2019-04-25T22:00:49.744Z,7.90
2019-04-25T22:03:39.342Z,7.60
2019-04-25T22:06:10.057Z,7.70
2019-04-25T22:08:40.236Z,7.80
2019-04-25T22:11:10.304Z,7.70
2019-04-25T22:13:41.050Z,7.80
2019-04-25T22:16:11.478Z,7.70
2019-04-25T22:18:42.722Z,7.60
2019-04-25T22:21:13.388Z,7.70
2019-04-25T22:23:43.887Z,7.70
2019-04-25T22:26:14.617Z,7.80
2019-04-25T22:28:45.048Z,7.70
2019-04-25T22:31:23.206Z,7.70
2019-04-25T22:34:16.807Z,7.70
2019-04-25T22:36:47.251Z,7.80
2019-04-25T22:39:17.592Z,7.70
2019-04-25T22:41:48.883Z,7.70
2019-04-25T22:44:21.536Z,7.70
2019-04-25T22:46:52.359Z,7.70
2019-04-25T22:49:22.557Z,7.80
2019-04-25T22:51:53.563Z,7.70
2019-04-25T22:54:24.900Z,7.70
2019-04-25T22:56:55.169Z,7.70
2019-04-25T22:59:27.233Z,7.80
2019-04-25T23:02:10.325Z,7.70
2019-04-25T23:04:49.469Z,7.50
2019-04-25T23:07:20.668Z,7.60
2019-04-25T23:09:51.916Z,7.40
2019-04-25T23:12:22.611Z,7.50
2019-04-25T23:14:52.835Z,7.50
2019-04-25T23:17:23.004Z,7.50
2019-04-25T23:19:53.589Z,7.50
2019-04-25T23:22:23.776Z,7.60
2019-04-25T23:25:01.964Z,7.50
2019-04-25T23:28:00.199Z,7.50
2019-04-25T23:30:36.253Z,7.50
2019-04-25T23:33:06.788Z,7.50
2019-04-25T23:35:39.236Z,7.50
2019-04-25T23:38:12.144Z,7.40
2019-04-25T23:40:41.603Z,7.50
2019-04-25T23:43:12.176Z,7.60
2019-04-25T23:45:42.295Z,7.70
2019-04-25T23:48:12.855Z,7.70
2019-04-25T23:50:43.149Z,7.70
2019-04-25T23:53:14.951Z,7.70
2019-04-25T23:55:51.357Z,7.70
2019-04-25T23:58:21.756Z,7.70
